Time;durP1;ratioP1;P1;durP2;ratioP2;P2;SDS_P1;SDS_P2;PMS_P1;PMS_P2;Temp;Humidity;BMP_temperature;BMP_pressure;BME280_temperature;BME280_humidity;BME280_pressure;Samples;Min_cycle;Max_cycle;Signal;HPM_P1;HPM_P2
2022/07/03 00:01:09;;;;;;;10.90;6.07;;;14.30;99.90;;;;;;4959485;28;20363;-75
2022/07/03 00:03:34;;;;;;;16.40;8.90;;;14.30;99.90;;;;;;4945650;28;20035;-74
2022/07/03 00:06:00;;;;;;;15.25;8.82;;;14.30;99.90;;;;;;4940816;29;20070;-75
2022/07/03 00:08:26;;;;;;;17.48;8.15;;;14.30;99.90;;;;;;4924326;29;20322;-75
2022/07/03 00:10:52;;;;;;;11.05;5.53;;;14.20;99.90;;;;;;4938285;28;20122;-75
2022/07/03 00:13:17;;;;;;;4.93;2.80;;;14.00;99.90;;;;;;4941617;28;20035;-75
2022/07/03 00:15:43;;;;;;;3.35;2.10;;;13.90;99.90;;;;;;4943461;28;20035;-75
2022/07/03 00:18:10;;;;;;;3.30;1.35;;;13.70;99.90;;;;;;4942686;28;20415;-75
2022/07/03 00:20:41;;;;;;;5.35;1.10;;;13.70;99.90;;;;;;4943959;28;20435;-75
2022/07/03 00:23:09;;;;;;;8.23;1.30;;;13.60;99.90;;;;;;4942792;28;20126;-75
2022/07/03 00:25:38;;;;;;;3.03;1.30;;;13.50;99.90;;;;;;4958928;28;20161;-75
2022/07/03 00:28:05;;;;;;;4.78;1.35;;;13.40;99.90;;;;;;4946017;28;20365;-75
2022/07/03 00:30:32;;;;;;;3.05;1.23;;;13.40;99.90;;;;;;4964067;28;20070;-75
2022/07/03 00:33:04;;;;;;;3.72;1.13;;;13.50;99.90;;;;;;4965472;28;20085;-75
2022/07/03 00:35:33;;;;;;;3.92;1.20;;;13.50;99.90;;;;;;4964921;28;20038;-75
2022/07/03 00:37:58;;;;;;;4.35;1.40;;;13.60;99.90;;;;;;4964089;28;20501;-75
2022/07/03 00:40:24;;;;;;;2.13;1.15;;;13.50;99.90;;;;;;4946795;28;20046;-75
2022/07/03 00:42:53;;;;;;;3.63;1.27;;;13.50;99.90;;;;;;4964024;28;20031;-75
2022/07/03 00:45:20;;;;;;;3.03;1.45;;;13.40;99.90;;;;;;4947017;28;20042;-74
2022/07/03 00:47:47;;;;;;;1.63;1.00;;;13.40;99.90;;;;;;4963824;28;20478;-74
2022/07/03 00:50:13;;;;;;;3.17;0.90;;;13.40;99.90;;;;;;4945742;28;20453;-74
2022/07/03 00:52:46;;;;;;;4.22;0.90;;;13.40;99.90;;;;;;4964830;28;20034;-75
2022/07/03 00:55:16;;;;;;;2.47;1.17;;;13.30;99.90;;;;;;4946777;28;20035;-74
2022/07/03 00:57:47;;;;;;;2.45;0.98;;;13.20;99.90;;;;;;4945984;28;20467;-75
2022/07/03 01:00:15;;;;;;;2.55;1.15;;;13.10;99.90;;;;;;4969686;28;20034;-75
2022/07/03 01:02:52;;;;;;;3.55;1.25;;;13.10;99.90;;;;;;4951526;28;20035;-75
2022/07/03 01:05:45;;;;;;;3.67;1.13;;;13.00;99.90;;;;;;4955081;28;20047;-75
2022/07/03 01:08:36;;;;;;;3.97;1.17;;;13.00;99.90;;;;;;4944844;28;20562;-75
2022/07/03 01:11:15;;;;;;;2.55;1.33;;;12.90;99.90;;;;;;4943182;28;20050;-75
2022/07/03 01:13:55;;;;;;;5.80;1.70;;;12.80;99.90;;;;;;4926840;29;20451;-75
2022/07/03 01:16:30;;;;;;;5.97;1.30;;;12.70;99.90;;;;;;4943804;28;20097;-75
2022/07/03 01:19:32;;;;;;;3.20;1.30;;;12.60;99.90;;;;;;4945059;29;20090;-75
2022/07/03 01:22:01;;;;;;;;;;;12.60;99.90;;;;;;4908894;29;20035;-75
2022/07/03 01:25:04;;;;;;;4.68;1.42;;;12.50;99.90;;;;;;4910122;29;19911;-75
2022/07/03 01:27:59;;;;;;;3.33;1.35;;;12.50;99.90;;;;;;4925904;29;20115;-75
2022/07/03 01:30:30;;;;;;;0.98;0.90;;;12.40;99.90;;;;;;4928331;29;20040;-75
2022/07/03 01:33:02;;;;;;;;;;;12.40;99.90;;;;;;4937796;28;20039;-75
2022/07/03 01:35:36;;;;;;;3.28;1.30;;;12.30;99.90;;;;;;4943930;28;19914;-75
2022/07/03 01:38:08;;;;;;;5.72;1.70;;;12.30;99.90;;;;;;4930054;29;20078;-75
2022/07/03 01:40:36;;;;;;;3.72;1.60;;;12.20;99.90;;;;;;4926768;29;20023;-75
2022/07/03 01:43:04;;;;;;;4.57;1.50;;;12.20;99.90;;;;;;4927161;29;20151;-75
2022/07/03 01:45:33;;;;;;;2.65;1.40;;;12.20;99.90;;;;;;4942365;28;20038;-75
2022/07/03 01:48:00;;;;;;;3.72;1.10;;;12.10;99.90;;;;;;4945059;28;20185;-75
2022/07/03 01:50:28;;;;;;;3.13;1.50;;;12.10;99.90;;;;;;4919133;29;20058;-74
2022/07/03 01:52:56;;;;;;;5.10;1.40;;;12.10;99.90;;;;;;4933307;29;20078;-74
2022/07/03 01:55:23;;;;;;;7.28;1.20;;;12.10;99.90;;;;;;4926657;29;20079;-75
2022/07/03 01:57:50;;;;;;;3.85;1.40;;;12.00;99.90;;;;;;4943837;28;20696;-75
2022/07/03 02:00:21;;;;;;;4.53;1.27;;;12.00;99.90;;;;;;4936582;28;20031;-75
2022/07/03 02:03:05;;;;;;;4.22;1.45;;;12.00;99.90;;;;;;4927963;28;20134;-75
2022/07/03 02:05:46;;;;;;;5.30;1.30;;;12.00;99.90;;;;;;4935578;28;20134;-74
2022/07/03 02:08:35;;;;;;;6.15;1.38;;;12.00;99.90;;;;;;4943407;28;20047;-75
2022/07/03 02:11:24;;;;;;;2.08;1.55;;;11.90;99.90;;;;;;4959428;28;20031;-75
2022/07/03 02:14:10;;;;;;;3.05;1.38;;;11.90;99.90;;;;;;4946394;28;20096;-74
2022/07/03 02:17:04;;;;;;;1.42;1.27;;;11.90;99.90;;;;;;4962354;28;20031;-74
2022/07/03 02:19:57;;;;;;;1.77;1.67;;;11.80;99.90;;;;;;4945940;28;20047;-74
2022/07/03 02:22:32;;;;;;;3.70;1.77;;;11.70;99.90;;;;;;4962689;28;20067;-74
2022/07/03 02:25:28;;;;;;;4.35;1.90;;;11.70;99.90;;;;;;4970085;28;20458;-74
2022/07/03 02:27:57;;;;;;;3.65;1.10;;;11.60;99.90;;;;;;4948084;28;20371;-74
2022/07/03 02:30:24;;;;;;;3.28;1.30;;;11.60;99.90;;;;;;4961204;28;20030;-74
2022/07/03 02:32:51;;;;;;;3.47;1.20;;;11.60;99.90;;;;;;4962497;28;20023;-74
2022/07/03 02:35:18;;;;;;;6.05;1.65;;;11.60;99.90;;;;;;4955980;28;20112;-74
2022/07/03 02:38:15;;;;;;;3.10;1.55;;;11.50;99.90;;;;;;4937901;28;20061;-74
2022/07/03 02:40:49;;;;;;;4.88;1.48;;;11.50;99.90;;;;;;4958864;28;20093;-73
2022/07/03 02:43:33;;;;;;;4.25;1.50;;;11.40;99.90;;;;;;4962830;28;20478;-74
2022/07/03 02:49:19;;;;;;;3.53;1.58;;;11.40;99.90;;;;;;4962755;28;20618;-74
2022/07/03 02:51:53;;;;;;;2.60;1.27;;;11.30;99.90;;;;;;4957714;28;20023;-74
2022/07/03 02:54:19;;;;;;;7.55;1.85;;;11.30;99.90;;;;;;4943687;29;20027;-74
2022/07/03 02:57:06;;;;;;;5.63;1.95;;;11.30;99.90;;;;;;4942012;28;20457;-74
2022/07/03 02:59:58;;;;;;;6.43;1.90;;;11.20;99.90;;;;;;4946883;28;20031;-74
2022/07/03 03:02:42;;;;;;;4.70;1.65;;;11.30;99.90;;;;;;4938489;28;20027;-74
2022/07/03 03:05:29;;;;;;;4.63;1.52;;;11.10;99.90;;;;;;4958979;28;20053;-74
2022/07/03 03:08:04;;;;;;;5.00;1.63;;;11.20;99.90;;;;;;4960895;28;20034;-73
2022/07/03 03:10:34;;;;;;;2.35;1.38;;;11.10;99.90;;;;;;4961077;28;20046;-74
2022/07/03 03:13:04;;;;;;;2.17;1.38;;;11.10;99.90;;;;;;4943283;28;20030;-74
2022/07/03 03:15:31;;;;;;;5.90;1.92;;;11.00;99.90;;;;;;4943442;28;20039;-74
2022/07/03 03:18:02;;;;;;;5.30;1.42;;;10.90;99.90;;;;;;4944799;28;20031;-74
2022/07/03 03:20:37;;;;;;;2.85;1.40;;;10.90;99.90;;;;;;4951858;28;20039;-74
2022/07/03 03:23:08;;;;;;;4.28;1.55;;;10.90;99.90;;;;;;4959574;28;20096;-75
2022/07/03 03:25:34;;;;;;;3.60;1.42;;;10.90;99.90;;;;;;4948404;28;20027;-74
2022/07/03 03:28:00;;;;;;;4.10;1.50;;;10.80;99.90;;;;;;4957624;28;20415;-74
2022/07/03 03:30:26;;;;;;;7.85;1.70;;;10.70;99.90;;;;;;4959621;28;20038;-74
2022/07/03 03:32:52;;;;;;;5.78;1.40;;;10.60;99.90;;;;;;4943049;29;20447;-74
2022/07/03 03:35:18;;;;;;;3.63;1.60;;;10.50;99.90;;;;;;4943662;28;20035;-74
2022/07/03 03:37:45;;;;;;;7.15;1.55;;;10.50;99.90;;;;;;4959905;28;20046;-74
2022/07/03 03:40:11;;;;;;;4.30;1.80;;;10.40;99.90;;;;;;4944964;28;20075;-74
2022/07/03 03:42:37;;;;;;;3.15;1.90;;;10.40;99.90;;;;;;4957676;28;20111;-74
2022/07/03 03:45:03;;;;;;;7.10;2.15;;;10.40;99.90;;;;;;4943792;28;20038;-74
2022/07/03 03:47:29;;;;;;;2.38;1.67;;;10.30;99.90;;;;;;4959378;28;20034;-74
2022/07/03 03:49:55;;;;;;;3.78;1.38;;;10.30;99.90;;;;;;4954558;28;20041;-74
2022/07/03 03:52:21;;;;;;;5.03;2.03;;;10.20;99.90;;;;;;4960599;28;20038;-74
2022/07/03 03:54:47;;;;;;;6.45;2.00;;;10.20;99.90;;;;;;4943398;28;20085;-73
2022/07/03 03:57:17;;;;;;;3.85;1.40;;;10.30;99.90;;;;;;4959283;28;20030;-74
2022/07/03 03:59:43;;;;;;;5.07;1.63;;;10.20;99.90;;;;;;4960642;28;20487;-74
2022/07/03 04:02:08;;;;;;;3.72;2.03;;;10.20;99.90;;;;;;4953733;28;20054;-74
2022/07/03 04:04:34;;;;;;;3.00;1.70;;;10.20;99.90;;;;;;4966325;28;20050;-74
2022/07/03 04:07:00;;;;;;;4.60;2.03;;;10.20;99.90;;;;;;4959023;28;20027;-74
2022/07/03 04:09:25;;;;;;;4.13;1.55;;;10.20;99.90;;;;;;4943480;28;20042;-73
2022/07/03 04:11:51;;;;;;;6.47;1.70;;;10.10;99.90;;;;;;4958622;28;20216;-74
2022/07/03 04:14:16;;;;;;;2.17;1.80;;;10.10;99.90;;;;;;4961428;28;20164;-74
2022/07/03 04:16:42;;;;;;;4.55;1.75;;;10.10;99.90;;;;;;4959657;28;20027;-74
2022/07/03 04:19:08;;;;;;;7.50;1.75;;;10.10;99.90;;;;;;4959777;28;20405;-74
2022/07/03 04:21:33;;;;;;;3.95;1.80;;;10.10;99.90;;;;;;4940246;28;20364;-74
2022/07/03 04:23:59;;;;;;;7.15;1.98;;;10.10;99.90;;;;;;4959019;28;20034;-74
2022/07/03 04:26:25;;;;;;;4.13;1.60;;;10.20;99.90;;;;;;4936119;28;20041;-74
2022/07/03 04:28:51;;;;;;;5.07;1.77;;;10.20;99.90;;;;;;4959174;28;20043;-74
2022/07/03 04:31:16;;;;;;;2.08;1.40;;;10.10;99.90;;;;;;4958421;28;20494;-74
2022/07/03 04:33:42;;;;;;;2.97;1.75;;;10.10;99.90;;;;;;4942257;28;20406;-74
2022/07/03 04:36:07;;;;;;;3.85;1.17;;;10.10;99.90;;;;;;4959583;28;20532;-74
2022/07/03 04:38:33;;;;;;;2.80;1.48;;;10.10;99.90;;;;;;4943063;28;20027;-73
2022/07/03 04:40:59;;;;;;;6.32;1.65;;;10.10;99.90;;;;;;4959786;28;20092;-74
2022/07/03 04:43:24;;;;;;;3.55;1.58;;;10.10;99.90;;;;;;4942583;28;20031;-73
2022/07/03 04:45:50;;;;;;;5.88;1.70;;;10.10;99.90;;;;;;4958224;28;20374;-74
2022/07/03 04:48:15;;;;;;;2.67;1.40;;;10.20;99.90;;;;;;4960061;28;20107;-74
2022/07/03 04:50:41;;;;;;;8.75;2.10;;;10.40;99.90;;;;;;4953774;28;20047;-74
2022/07/03 04:53:07;;;;;;;6.63;2.83;;;10.50;99.90;;;;;;4947987;28;20035;-74
2022/07/03 04:55:32;;;;;;;4.57;2.42;;;10.70;99.90;;;;;;4959185;28;20515;-73
2022/07/03 04:57:58;;;;;;;4.55;2.60;;;10.90;99.90;;;;;;4961868;28;20359;-73
2022/07/03 05:00:24;;;;;;;5.13;3.03;;;11.10;99.90;;;;;;4936238;29;20059;-74
2022/07/03 05:02:49;;;;;;;7.93;2.72;;;11.30;99.90;;;;;;4946862;28;20061;-74
2022/07/03 05:05:15;;;;;;;5.72;2.47;;;11.50;99.90;;;;;;4936022;28;20158;-74
2022/07/03 05:07:41;;;;;;;5.10;2.40;;;11.60;99.90;;;;;;4924046;28;20048;-74
2022/07/03 05:10:07;;;;;;;8.63;2.20;;;11.70;99.90;;;;;;4924472;29;20043;-74
2022/07/03 05:12:32;;;;;;;5.95;2.88;;;11.70;99.90;;;;;;4944212;28;20095;-74
2022/07/03 05:14:58;;;;;;;9.93;2.92;;;11.70;99.90;;;;;;4944613;28;20035;-74
2022/07/03 05:17:24;;;;;;;8.25;2.63;;;11.70;99.90;;;;;;4944687;28;20046;-74
2022/07/03 05:20:23;;;;;;;13.48;5.72;;;11.60;99.90;;;;;;4926989;29;20178;-74
2022/07/03 05:22:38;;;;;;;14.38;5.82;;;11.40;99.90;;;;;;4938415;28;20032;-74
2022/07/03 05:25:04;;;;;;;16.75;5.22;;;11.30;99.90;;;;;;4926081;29;20099;-74
2022/07/03 05:27:30;;;;;;;9.82;3.70;;;11.30;99.90;;;;;;4926289;29;20040;-73
2022/07/03 05:29:56;;;;;;;5.07;2.72;;;11.20;99.90;;;;;;4926244;28;20122;-74
2022/07/03 05:32:22;;;;;;;9.65;3.00;;;11.30;99.90;;;;;;4926665;29;20035;-74
2022/07/03 05:34:47;;;;;;;5.35;2.10;;;11.30;99.90;;;;;;4930225;29;20110;-74
2022/07/03 05:37:13;;;;;;;8.35;3.30;;;11.30;99.90;;;;;;4945492;29;20035;-74
2022/07/03 05:39:39;;;;;;;5.53;2.00;;;11.30;99.90;;;;;;4945415;29;20026;-74
2022/07/03 05:42:05;;;;;;;7.93;2.55;;;11.40;99.90;;;;;;4939042;28;20039;-73
2022/07/03 05:44:31;;;;;;;4.22;1.80;;;11.40;99.90;;;;;;4944482;28;20027;-74
2022/07/03 05:46:56;;;;;;;4.68;2.10;;;11.50;99.90;;;;;;4943095;28;20027;-74
2022/07/03 05:49:22;;;;;;;7.32;2.63;;;11.60;99.90;;;;;;4943758;28;20051;-74
2022/07/03 05:51:48;;;;;;;9.90;3.42;;;11.60;99.90;;;;;;4926985;29;20043;-75
2022/07/03 05:54:14;;;;;;;16.60;4.57;;;11.70;99.90;;;;;;4944274;29;20035;-75
2022/07/03 05:56:41;;;;;;;13.90;4.88;;;11.80;99.90;;;;;;4945582;28;20027;-75
2022/07/03 05:59:06;;;;;;;16.92;5.13;;;11.90;99.90;;;;;;4926692;28;20047;-74
2022/07/03 06:01:32;;;;;;;18.50;5.95;;;12.10;99.90;;;;;;4942053;28;20026;-74
2022/07/03 06:03:58;;;;;;;15.20;4.97;;;12.20;99.90;;;;;;4937753;29;20098;-74
2022/07/03 06:06:23;;;;;;;13.57;4.10;;;12.30;99.90;;;;;;4944686;29;20126;-74
2022/07/03 06:08:49;;;;;;;6.28;2.63;;;12.40;99.90;;;;;;4960742;28;20459;-73
2022/07/03 06:11:15;;;;;;;8.73;1.80;;;12.50;99.90;;;;;;4962434;28;20422;-74
2022/07/03 06:13:40;;;;;;;4.45;0.85;;;12.60;99.90;;;;;;4962505;28;20027;-74
2022/07/03 06:16:06;;;;;;;2.45;1.02;;;12.70;99.90;;;;;;4945403;28;20305;-74
2022/07/03 06:18:31;;;;;;;3.88;1.00;;;12.80;99.90;;;;;;4961930;28;20346;-75
2022/07/03 06:20:57;;;;;;;5.72;1.05;;;12.90;99.90;;;;;;4957859;28;20035;-74
2022/07/03 06:23:23;;;;;;;3.05;1.02;;;13.30;99.90;;;;;;4926969;29;20035;-74
2022/07/03 06:25:48;;;;;;;1.50;0.82;;;13.80;99.90;;;;;;4960889;28;20541;-75
2022/07/03 06:28:14;;;;;;;3.17;0.77;;;14.40;99.90;;;;;;4963359;28;20114;-74
2022/07/03 06:30:40;;;;;;;6.07;0.85;;;14.90;99.90;;;;;;4945738;28;20037;-74
2022/07/03 06:33:05;;;;;;;3.40;0.65;;;15.50;99.90;;;;;;4940840;28;20035;-74
2022/07/03 06:35:31;;;;;;;54.97;48.63;;;16.10;99.90;;;;;;4951269;28;20039;-74
2022/07/03 06:38:04;;;;;;;60.67;35.28;;;16.50;99.90;;;;;;4943777;28;20069;-74
2022/07/03 06:40:30;;;;;;;6.07;2.13;;;16.60;99.90;;;;;;4940944;28;20410;-75
2022/07/03 06:42:55;;;;;;;2.17;0.57;;;16.90;99.90;;;;;;4960205;28;20027;-74
2022/07/03 06:45:21;;;;;;;5.15;0.82;;;17.10;99.90;;;;;;4957565;28;20105;-74
2022/07/03 06:47:46;;;;;;;3.05;0.75;;;17.40;99.90;;;;;;4956261;28;20422;-75
2022/07/03 06:50:12;;;;;;;7.22;0.82;;;17.90;99.90;;;;;;4952351;28;20617;-74
2022/07/03 06:52:38;;;;;;;5.15;0.77;;;18.20;99.90;;;;;;4933691;28;20039;-75
2022/07/03 06:55:05;;;;;;;29.40;18.98;;;18.20;99.90;;;;;;4949347;28;20035;-74
2022/07/03 06:57:30;;;;;;;4.72;1.40;;;18.30;99.90;;;;;;4959906;28;20019;-75
2022/07/03 06:59:56;;;;;;;14.18;8.02;;;18.30;99.90;;;;;;4963151;28;20057;-75
2022/07/03 07:02:22;;;;;;;6.78;2.17;;;18.00;99.90;;;;;;4959283;28;20340;-75
2022/07/03 07:04:47;;;;;;;3.83;0.93;;;18.00;99.90;;;;;;4939075;28;20049;-75
2022/07/03 07:07:13;;;;;;;8.50;1.02;;;18.30;99.90;;;;;;4937063;28;20635;-74
2022/07/03 07:09:39;;;;;;;6.00;3.63;;;18.50;99.90;;;;;;4956910;28;20540;-75
2022/07/03 07:12:05;;;;;;;5.38;2.22;;;18.60;99.90;;;;;;4957397;28;20043;-75
2022/07/03 07:14:31;;;;;;;3.92;0.88;;;18.90;99.90;;;;;;4949073;28;20030;-75
2022/07/03 07:16:56;;;;;;;5.55;1.08;;;19.10;99.90;;;;;;4949884;28;20030;-75
2022/07/03 07:19:22;;;;;;;2.42;0.57;;;19.30;99.90;;;;;;4950516;28;20439;-75
2022/07/03 07:21:48;;;;;;;5.15;0.80;;;19.20;99.90;;;;;;4957754;28;20114;-74
2022/07/03 07:24:13;;;;;;;3.22;0.55;;;19.40;99.90;;;;;;4960102;28;20099;-75
2022/07/03 07:26:39;;;;;;;24.83;16.35;;;19.50;99.90;;;;;;4943892;28;20516;-75
2022/07/03 07:29:05;;;;;;;4.32;1.05;;;19.60;99.90;;;;;;4956056;28;20061;-75
2022/07/03 07:31:31;;;;;;;3.72;0.98;;;19.50;99.90;;;;;;4945632;28;20081;-75
2022/07/03 07:33:57;;;;;;;5.00;2.25;;;19.70;99.90;;;;;;4967893;28;20050;-75
2022/07/03 07:36:22;;;;;;;5.05;0.80;;;19.90;99.90;;;;;;4946080;28;20061;-75
2022/07/03 07:38:48;;;;;;;5.22;0.50;;;19.60;99.90;;;;;;4953413;28;20590;-74
2022/07/03 07:41:14;;;;;;;6.85;0.75;;;19.70;99.90;;;;;;4951749;28;20039;-75
2022/07/03 07:43:39;;;;;;;3.92;0.50;;;19.60;99.90;;;;;;4935791;28;21138;-74
2022/07/03 07:46:05;;;;;;;1.27;0.40;;;19.50;99.90;;;;;;4952869;28;20658;-75
2022/07/03 07:48:31;;;;;;;6.82;0.63;;;19.80;99.90;;;;;;4950903;28;20095;-77
2022/07/03 07:50:56;;;;;;;4.47;0.60;;;19.90;99.90;;;;;;4954956;28;20036;-75
2022/07/03 07:53:22;;;;;;;2.58;0.57;;;19.80;99.90;;;;;;4952502;28;20175;-75
2022/07/03 07:55:48;;;;;;;6.05;1.00;;;19.70;99.90;;;;;;4935829;28;20483;-75
2022/07/03 07:58:13;;;;;;;4.75;1.20;;;19.70;99.90;;;;;;4950756;28;20113;-75
2022/07/03 08:05:35;;;;;;;4.03;0.60;;;19.60;99.90;;;;;;4936267;28;20030;-74
2022/07/03 08:06:10;;;;;;;1.63;0.32;;;19.70;99.90;;;;;;4953041;28;21486;-75
2022/07/03 08:08:35;;;;;;;2.42;0.50;;;19.90;99.90;;;;;;4946460;28;20039;-74
2022/07/03 08:11:01;;;;;;;1.90;0.30;;;20.20;99.90;;;;;;4955062;28;20636;-75
2022/07/03 08:13:27;;;;;;;4.32;0.50;;;20.20;99.90;;;;;;4935210;28;20600;-74
2022/07/03 08:15:52;;;;;;;2.28;0.60;;;20.40;99.90;;;;;;4935025;28;20116;-75
2022/07/03 08:18:18;;;;;;;4.70;0.50;;;20.50;99.90;;;;;;4955894;28;20034;-75
2022/07/03 08:20:44;;;;;;;7.88;0.93;;;20.50;99.90;;;;;;4937100;28;20043;-74
2022/07/03 08:23:10;;;;;;;4.93;1.30;;;20.50;99.90;;;;;;4951147;28;20494;-74
2022/07/03 08:25:35;;;;;;;1.48;0.63;;;20.60;99.90;;;;;;4951850;28;20210;-74
2022/07/03 08:28:02;;;;;;;2.63;0.45;;;20.70;99.90;;;;;;4943851;28;20457;-74
2022/07/03 08:30:28;;;;;;;3.45;0.52;;;21.00;99.90;;;;;;4946077;28;20054;-74
2022/07/03 08:32:56;;;;;;;1.27;0.38;;;21.50;99.90;;;;;;4955739;28;20034;-74
2022/07/03 08:35:22;;;;;;;1.88;0.50;;;21.30;99.90;;;;;;4951228;28;20031;-73
2022/07/03 08:37:48;;;;;;;3.97;0.77;;;21.90;99.90;;;;;;4945957;28;20027;-74
2022/07/03 08:40:15;;;;;;;3.42;0.73;;;23.00;99.90;;;;;;4954843;28;20172;-74
2022/07/03 08:42:47;;;;;;;1.77;0.40;;;24.70;95.70;;;;;;4962370;28;20041;-74
2022/07/03 08:45:23;;;;;;;1.17;0.30;;;26.00;92.60;;;;;;4931584;28;20128;-74
2022/07/03 08:47:50;;;;;;;3.53;0.95;;;26.90;88.40;;;;;;4959720;28;20035;-74
2022/07/03 08:50:18;;;;;;;1.98;0.50;;;27.20;66.50;;;;;;4963845;28;20043;-75
2022/07/03 08:52:44;;;;;;;2.80;0.40;;;29.40;68.70;;;;;;4962537;28;20027;-75
2022/07/03 08:55:13;;;;;;;1.42;0.28;;;30.80;52.50;;;;;;4962097;28;20053;-75
2022/07/03 08:57:43;;;;;;;1.50;0.20;;;31.00;54.50;;;;;;4963817;28;20085;-75
2022/07/03 09:00:14;;;;;;;1.20;0.20;;;33.50;52.30;;;;;;4953737;28;20261;-74
2022/07/03 09:02:43;;;;;;;2.38;0.98;;;32.10;47.50;;;;;;4956839;28;20035;-75
2022/07/03 09:05:10;;;;;;;1.00;0.30;;;31.60;44.10;;;;;;4953543;28;20042;-75
2022/07/03 09:07:36;;;;;;;1.27;0.30;;;30.10;48.00;;;;;;4942573;28;20039;-75
2022/07/03 09:10:08;;;;;;;1.63;0.30;;;28.30;53.20;;;;;;4956488;28;20048;-74
2022/07/03 09:12:34;;;;;;;0.40;0.10;;;27.30;61.10;;;;;;4934510;28;20061;-75
2022/07/03 09:15:02;;;;;;;1.52;0.30;;;26.60;66.00;;;;;;4962613;28;20034;-74
2022/07/03 09:17:28;;;;;;;2.33;0.20;;;25.50;64.40;;;;;;4952940;28;20082;-75
2022/07/03 09:19:57;;;;;;;1.98;0.30;;;24.70;78.80;;;;;;4942632;28;20062;-74
2022/07/03 09:22:27;;;;;;;2.63;0.40;;;23.80;81.00;;;;;;4939012;28;20032;-74
2022/07/03 09:25:16;;;;;;;3.85;1.05;;;22.90;92.70;;;;;;4957514;28;20478;-74
2022/07/03 09:27:52;;;;;;;2.85;1.00;;;25.20;98.60;;;;;;4959119;28;20163;-74
2022/07/03 09:30:19;;;;;;;1.52;0.30;;;27.90;69.40;;;;;;4961586;28;20125;-74
2022/07/03 09:32:46;;;;;;;1.85;0.43;;;29.90;54.10;;;;;;4957348;28;20042;-74
2022/07/03 09:35:27;;;;;;;4.10;0.80;;;30.20;50.20;;;;;;4955696;28;20098;-75
2022/07/03 09:37:58;;;;;;;1.33;0.63;;;29.20;52.60;;;;;;4959515;28;20038;-74
2022/07/03 09:40:25;;;;;;;0.57;0.32;;;27.80;51.60;;;;;;4943028;28;20129;-74
2022/07/03 09:43:04;;;;;;;2.00;0.32;;;27.80;54.10;;;;;;4959936;28;20114;-75
2022/07/03 09:46:02;;;;;;;1.90;0.43;;;30.00;62.20;;;;;;4961337;28;20683;-75
2022/07/03 09:48:28;;;;;;;1.50;0.55;;;31.10;48.30;;;;;;4942598;28;20070;-75
2022/07/03 09:51:08;;;;;;;1.25;0.30;;;30.20;48.50;;;;;;4952115;28;20106;-75
2022/07/03 09:53:52;;;;;;;3.45;0.50;;;27.70;49.40;;;;;;4942013;28;20046;-74
2022/07/03 09:56:19;;;;;;;3.95;0.20;;;26.80;58.60;;;;;;4936147;28;20030;-74
2022/07/03 09:59:09;;;;;;;1.95;0.30;;;25.70;58.00;;;;;;4958270;28;20031;-75
2022/07/03 10:01:37;;;;;;;2.15;0.50;;;25.70;73.20;;;;;;4940103;28;20039;-74
2022/07/03 10:04:16;;;;;;;1.38;0.20;;;26.40;65.60;;;;;;4943649;28;20031;-75
2022/07/03 10:06:46;;;;;;;2.60;0.47;;;26.10;70.10;;;;;;4953654;28;20229;-75
2022/07/03 10:09:14;;;;;;;3.80;0.47;;;26.20;65.00;;;;;;4962303;28;20463;-74
2022/07/03 10:11:41;;;;;;;3.85;0.70;;;26.20;61.90;;;;;;4953401;28;20057;-74
2022/07/03 10:14:07;;;;;;;2.40;0.60;;;26.60;64.90;;;;;;4960072;28;20041;-74
2022/07/03 10:16:33;;;;;;;2.83;0.70;;;27.60;79.50;;;;;;4957863;28;20106;-75
2022/07/03 10:19:01;;;;;;;0.90;0.30;;;30.50;61.60;;;;;;4960259;28;20130;-71
2022/07/03 10:21:28;;;;;;;1.50;0.55;;;32.10;50.00;;;;;;4943809;28;20101;-72
2022/07/03 10:23:54;;;;;;;2.72;0.75;;;31.80;46.40;;;;;;4959415;28;20443;-71
2022/07/03 10:26:20;;;;;;;2.17;0.57;;;30.20;45.90;;;;;;4961562;28;20031;-74
2022/07/03 10:28:46;;;;;;;4.78;0.65;;;28.20;53.10;;;;;;4954970;28;20062;-75
2022/07/03 10:31:13;;;;;;;2.85;0.90;;;28.20;52.00;;;;;;4958389;28;20030;-74
2022/07/03 10:33:39;;;;;;;1.95;0.47;;;27.60;55.90;;;;;;4941500;28;20037;-75
2022/07/03 10:36:06;;;;;;;1.67;0.40;;;28.90;50.20;;;;;;4943511;28;20530;-74
2022/07/03 10:38:42;;;;;;;1.67;0.43;;;29.00;49.20;;;;;;4949488;28;20094;-74
2022/07/03 10:46:59;;;;;;;3.47;0.77;;;25.50;71.20;;;;;;4953371;28;20046;-74
2022/07/03 10:49:25;;;;;;;2.72;0.70;;;26.10;69.20;;;;;;4941575;28;20447;-74
2022/07/03 10:52:00;;;;;;;2.92;0.80;;;25.70;67.10;;;;;;4959120;28;20031;-74
2022/07/03 10:54:49;;;;;;;2.38;0.50;;;25.40;78.80;;;;;;4943941;28;20430;-74
2022/07/03 10:57:16;;;;;;;2.70;0.40;;;25.30;75.70;;;;;;4937112;28;20430;-75
2022/07/03 10:59:44;;;;;;;3.20;0.57;;;25.10;82.80;;;;;;4948666;28;20061;-75
2022/07/03 11:02:33;;;;;;;3.75;0.50;;;26.80;75.00;;;;;;4936058;28;20027;-73
2022/07/03 11:04:59;;;;;;;2.45;0.50;;;26.70;62.90;;;;;;4937757;28;20058;-74
2022/07/03 11:07:31;;;;;;;3.55;0.40;;;26.80;66.80;;;;;;4942966;28;20035;-74
2022/07/03 11:10:12;;;;;;;0.98;0.38;;;28.00;75.30;;;;;;4957742;28;20543;-74
2022/07/03 11:12:57;;;;;;;4.50;0.50;;;29.00;65.70;;;;;;4597003;28;10000418;-74
2022/07/03 11:15:33;;;;;;;3.83;0.50;;;28.20;59.90;;;;;;4954015;28;20269;-74
2022/07/03 11:18:05;;;;;;;4.47;0.77;;;26.50;69.80;;;;;;4957585;28;20042;-74
2022/07/03 11:20:37;;;;;;;3.50;0.65;;;24.90;73.20;;;;;;4948624;28;20058;-74
2022/07/03 11:23:10;;;;;;;4.18;0.60;;;23.40;85.40;;;;;;4940221;29;20089;-73
2022/07/03 11:25:40;;;;;;;3.47;0.70;;;22.80;97.90;;;;;;4945906;28;20113;-74
2022/07/03 11:28:06;;;;;;;2.28;0.40;;;23.20;99.90;;;;;;4972568;28;20026;-74
2022/07/03 11:30:32;;;;;;;4.97;0.40;;;24.90;95.20;;;;;;4952717;28;20081;-73
2022/07/03 11:32:59;;;;;;;2.33;0.40;;;25.70;83.20;;;;;;4955280;28;20031;-73
2022/07/03 11:35:48;;;;;;;3.88;0.50;;;25.40;79.80;;;;;;4954314;28;20034;-73
2022/07/03 11:38:22;;;;;;;2.53;0.40;;;25.10;85.20;;;;;;4957441;28;20031;-74
2022/07/03 11:40:51;;;;;;;4.03;0.63;;;24.20;85.30;;;;;;4956073;28;20031;-73
2022/07/03 11:43:17;;;;;;;3.78;0.65;;;23.70;88.80;;;;;;4950943;28;20437;-74
2022/07/03 11:45:43;;;;;;;4.50;0.80;;;23.00;91.00;;;;;;4956350;28;20517;-74
2022/07/03 11:48:13;;;;;;;7.82;0.90;;;22.60;96.70;;;;;;4949324;28;20374;-74
2022/07/03 11:50:41;;;;;;;3.25;0.85;;;22.40;99.20;;;;;;4952558;28;20041;-74
2022/07/03 11:53:26;;;;;;;4.82;0.90;;;22.10;98.70;;;;;;4943294;28;20356;-74
2022/07/03 11:56:06;;;;;;;3.25;0.43;;;22.10;99.90;;;;;;4936691;28;20031;-74
2022/07/03 11:58:49;;;;;;;4.93;0.63;;;22.40;99.90;;;;;;4947859;28;20043;-74
2022/07/03 12:01:26;;;;;;;3.60;0.60;;;23.00;97.90;;;;;;4934231;28;20038;-74
2022/07/03 12:04:08;;;;;;;2.70;1.05;;;23.90;90.80;;;;;;4939138;28;20525;-74
2022/07/03 12:06:38;;;;;;;5.45;0.50;;;24.60;82.60;;;;;;4951540;28;21875;-75
2022/07/03 12:09:24;;;;;;;4.68;0.60;;;24.80;86.80;;;;;;4946819;28;21044;-73
2022/07/03 12:12:07;;;;;;;5.00;1.02;;;24.60;86.40;;;;;;4944023;28;20495;-74
2022/07/03 12:14:41;;;;;;;3.42;0.50;;;25.00;83.90;;;;;;4931749;28;20149;-74
2022/07/03 12:17:15;;;;;;;4.75;0.60;;;25.30;74.60;;;;;;4947592;28;20173;-74
2022/07/03 12:19:58;;;;;;;3.20;0.52;;;25.60;92.70;;;;;;4949286;28;20400;-73
2022/07/03 12:22:27;;;;;;;3.25;0.70;;;25.80;79.10;;;;;;4955184;28;20354;-75
2022/07/03 12:25:04;;;;;;;4.65;0.73;;;26.10;78.30;;;;;;4956886;28;20038;-74
2022/07/03 12:27:33;;;;;;;2.42;0.57;;;26.30;72.50;;;;;;4940119;29;20019;-74
2022/07/03 12:29:59;;;;;;;4.50;1.02;;;26.10;70.90;;;;;;4953270;28;20045;-73
2022/07/03 12:32:25;;;;;;;5.72;0.75;;;25.70;67.40;;;;;;4954830;28;20115;-74
2022/07/03 12:34:51;;;;;;;2.00;0.47;;;25.10;70.90;;;;;;4928711;28;20107;-75
2022/07/03 12:37:16;;;;;;;5.00;0.75;;;25.00;78.20;;;;;;4952682;28;20039;-74
2022/07/03 12:39:49;;;;;;;3.05;0.30;;;24.50;72.30;;;;;;4959711;28;20517;-76
2022/07/03 12:42:22;;;;;;;6.82;0.73;;;23.90;72.70;;;;;;3929436;28;10000465;-74
2022/07/03 12:45:01;;;;;;;6.10;0.90;;;23.50;87.50;;;;;;4957423;28;20518;-74
2022/07/03 12:47:28;;;;;;;3.22;0.50;;;23.60;83.00;;;;;;4959285;28;20419;-74
2022/07/03 12:50:01;;;;;;;4.68;0.50;;;23.00;83.10;;;;;;4951042;28;20089;-72
2022/07/03 12:52:28;;;;;;;1.40;0.35;;;22.80;91.10;;;;;;4955458;28;20145;-74
2022/07/03 12:54:54;;;;;;;4.40;0.50;;;22.60;94.00;;;;;;4957287;28;20034;-73
2022/07/03 13:00:10;;;;;;;3.65;0.40;;;23.40;88.70;;;;;;4959930;28;20318;-73
2022/07/03 13:02:40;;;;;;;4.25;0.38;;;24.60;91.50;;;;;;4963393;28;20545;-73
2022/07/03 13:05:19;;;;;;;3.20;0.60;;;24.80;74.30;;;;;;4958829;28;20612;-72
2022/07/03 13:07:48;;;;;;;4.57;0.47;;;24.10;71.30;;;;;;4950890;28;20042;-73
2022/07/03 13:10:15;;;;;;;3.05;0.65;;;23.10;76.90;;;;;;4939534;28;20129;-74
2022/07/03 13:12:54;;;;;;;2.88;0.52;;;22.60;90.20;;;;;;4957341;28;20372;-72
2022/07/03 13:15:24;;;;;;;2.22;0.57;;;22.40;93.00;;;;;;4963571;28;20030;-72